Paris, France
Current Conditions -  °F | °C
As of 11:30 PM on Friday 19 Dec 2014 (Local Time) from LFPB Reporting Station
Broken Clouds Broken Clouds  
Wind Chill:   Ceiling: 4600
Heat Index:   Visibility: 6mi
Dew Point:   Wind: 3mph
Humidity: 71%   Direction: 250°WSW
Pressure: 30.33"   Gusts: NA
Location:  48.86°N, 2.35°E
Report Text: LFPB 192230Z AUTO 25003KT 9999 BKN046 08/03 Q1027
Loading
Personal Weather Stations






























Interactive Weather Map New forecast layout! Learn more

10-Day Weather Forecast

Advertisements
Track Severe Weather on mobile